Time;durP1;ratioP1;P1;durP2;ratioP2;P2;SDS_P1;SDS_P2;PMS_P1;PMS_P2;Temp;Humidity;BMP_temperature;BMP_pressure;BME280_temperature;BME280_humidity;BME280_pressure;Samples;Min_cycle;Max_cycle;Signal;HPM_P1;HPM_P2
2024/01/06 07:01:25;;;;;;;1.50;1.50;;;7.20;99.90;8.80;100521.00;;;;6181105;22;1485363;-71
2024/01/06 07:03:56;;;;;;;1.90;1.73;;;7.10;99.90;8.70;100544.00;;;;6248074;23;20541;-70
2024/01/06 07:06:30;;;;;;;0.80;0.80;;;7.00;99.90;8.70;100535.00;;;;6246659;23;20177;-70
2024/01/06 07:08:58;;;;;;;0.70;0.70;;;6.90;99.90;9.00;100533.00;;;;6246477;23;20188;-71
2024/01/06 07:11:32;;;;;;;1.40;1.40;;;6.90;99.90;9.60;100534.00;;;;6245953;23;20219;-72
2024/01/06 07:14:12;;;;;;;2.03;1.87;;;7.20;99.90;7.80;100541.00;;;;6247839;22;20168;-70
2024/01/06 07:16:50;;;;;;;1.07;1.07;;;6.80;99.90;9.20;100566.00;;;;6245742;23;20141;-71
2024/01/06 07:19:24;;;;;;;2.67;1.97;;;7.00;99.90;8.20;100564.00;;;;6246410;23;20149;-70
2024/01/06 07:21:56;;;;;;;1.63;1.53;;;6.80;99.90;8.30;100565.00;;;;6246307;23;20199;-71
2024/01/06 07:24:27;;;;;;;0.97;0.97;;;6.70;99.90;9.10;100566.00;;;;6246508;23;20149;-70
2024/01/06 07:26:59;;;;;;;1.27;1.10;;;6.90;99.90;8.10;100574.00;;;;6220273;23;20150;-70
2024/01/06 07:29:25;;;;;;;0.97;0.97;;;6.70;99.90;9.10;100575.00;;;;6245848;23;20237;-70
2024/01/06 07:31:59;;;;;;;1.33;1.33;;;6.90;99.90;9.40;100594.00;;;;6247673;22;20206;-70
2024/01/06 07:34:30;;;;;;;2.77;2.57;;;7.20;99.90;9.40;100576.00;;;;6247324;22;20163;-70
2024/01/06 07:36:57;;;;;;;2.40;1.53;;;7.20;99.90;9.50;100586.00;;;;6245352;23;20145;-70
2024/01/06 07:39:37;;;;;;;1.43;1.33;;;7.20;99.90;9.00;100586.00;;;;6245640;22;20158;-70
2024/01/06 07:42:07;;;;;;;2.13;1.93;;;7.20;99.90;8.50;100597.00;;;;6247353;22;20173;-70
2024/01/06 07:44:33;;;;;;;0.70;0.70;;;7.00;99.90;8.20;100595.00;;;;6221314;23;20209;-70
2024/01/06 07:47:01;;;;;;;2.80;1.97;;;6.80;99.90;7.60;100602.00;;;;6247234;22;20582;-69
2024/01/06 07:49:27;;;;;;;1.10;1.10;;;6.60;99.90;8.40;100610.00;;;;6247555;22;20142;-70
2024/01/06 07:51:59;;;;;;;0.60;0.60;;;6.50;99.90;8.70;100606.00;;;;6247591;23;20153;-70
2024/01/06 07:54:32;;;;;;;1.00;1.00;;;6.70;99.90;7.90;100608.00;;;;6245866;23;20221;-70
2024/01/06 07:57:20;;;;;;;1.20;1.10;;;6.50;99.90;8.10;100612.00;;;;6246381;23;20145;-70
2024/01/06 08:00:25;;;;;;;0.80;0.80;;;6.50;99.90;8.30;100613.00;;;;6246819;22;20173;-69
2024/01/06 08:02:56;;;;;;;0.60;0.60;;;6.40;99.90;8.10;100565.00;;;;6245057;23;20220;-69
2024/01/06 08:05:22;;;;;;;2.10;1.73;;;6.40;99.90;8.60;100610.00;;;;6245757;23;20142;-70
2024/01/06 08:07:54;;;;;;;0.57;0.57;;;6.60;99.90;9.10;100615.00;;;;6246064;23;20199;-70
2024/01/06 08:10:23;;;;;;;4.27;2.50;;;6.70;99.90;9.20;100639.00;;;;6247203;22;20211;-70
2024/01/06 08:12:53;;;;;;;3.23;1.70;;;6.90;99.90;8.30;100647.00;;;;6245254;23;20169;-70
2024/01/06 08:15:25;;;;;;;1.90;1.80;;;6.80;99.90;8.10;100654.00;;;;6245501;23;20564;-70
2024/01/06 08:17:54;;;;;;;1.77;1.70;;;6.60;99.90;9.10;100634.00;;;;6245891;23;20165;-70
2024/01/06 08:20:23;;;;;;;0.60;0.60;;;6.80;99.90;8.80;100653.00;;;;6245448;23;20229;-70
2024/01/06 08:22:49;;;;;;;1.10;1.10;;;6.70;99.90;8.40;100653.00;;;;6245643;23;20173;-70
2024/01/06 08:25:24;;;;;;;1.70;1.60;;;6.70;99.90;7.80;100664.00;;;;6247612;22;20146;-70
2024/01/06 08:27:50;;;;;;;1.27;1.13;;;6.40;99.90;8.00;100666.00;;;;6245477;23;20562;-70
2024/01/06 08:30:19;;;;;;;0.80;0.80;;;6.40;99.90;7.30;100662.00;;;;6245447;23;20193;-70
2024/01/06 08:32:45;;;;;;;2.47;1.13;;;6.20;99.90;7.60;100669.00;;;;6220414;23;20586;-70
2024/01/06 08:35:16;;;;;;;2.07;1.20;;;6.20;99.90;7.50;100667.00;;;;6245603;23;20154;-70
2024/01/06 08:38:00;;;;;;;1.00;1.00;;;6.00;99.90;7.20;100676.00;;;;6245720;23;20148;-70
2024/01/06 08:40:27;;;;;;;2.03;1.73;;;6.00;99.90;6.90;100674.00;;;;6245503;23;20159;-70
2024/01/06 08:43:41;;;;;;;1.43;1.33;;;5.90;99.90;7.10;100686.00;;;;6246634;22;20668;-70
2024/01/06 08:46:32;;;;;;;1.63;1.53;;;6.00;99.90;7.20;100660.00;;;;6245549;23;20147;-69
2024/01/06 08:49:30;;;;;;;1.33;1.23;;;5.90;99.90;7.40;100699.00;;;;6245353;23;20148;-70
2024/01/06 08:52:59;;;;;;;1.80;1.60;;;5.90;99.90;6.90;100706.00;;;;6238503;22;20556;-70
2024/01/06 08:55:43;;;;;;;1.47;1.37;;;5.90;99.90;7.20;100706.00;;;;6245436;23;20184;-70
2024/01/06 08:58:17;;;;;;;1.93;1.83;;;5.90;99.90;7.10;100702.00;;;;6219567;23;20166;-70
2024/01/06 09:01:13;;;;;;;1.00;0.87;;;5.90;99.90;7.70;100720.00;;;;6244907;23;20163;-70
2024/01/06 09:03:39;;;;;;;0.50;0.50;;;5.90;99.90;7.90;100717.00;;;;6244289;23;20176;-70
2024/01/06 09:06:46;;;;;;;1.63;1.53;;;6.10;99.90;7.50;100721.00;;;;6246558;22;20167;-70
2024/01/06 09:09:37;;;;;;;0.63;0.63;;;6.10;99.90;8.20;100712.00;;;;6220207;23;20187;-69
2024/01/06 09:12:13;;;;;;;1.57;1.20;;;6.30;99.90;8.60;100730.00;;;;6218573;23;20181;-70
2024/01/06 09:15:16;;;;;;;0.50;0.50;;;6.50;99.90;9.00;100736.00;;;;6245267;23;20234;-70
2024/01/06 09:17:42;;;;;;;0.40;0.40;;;6.70;99.90;8.20;100727.00;;;;6223486;23;20168;-70
2024/01/06 09:20:27;;;;;;;0.50;0.50;;;6.40;99.90;9.40;100734.00;;;;6245170;23;20466;-70
2024/01/06 09:22:55;;;;;;;0.60;0.60;;;6.70;99.90;9.40;100737.00;;;;6246748;22;20169;-70
2024/01/06 09:25:50;;;;;;;0.70;0.70;;;6.90;99.90;9.00;100755.00;;;;6245438;23;20224;-70
2024/01/06 09:28:16;;;;;;;1.60;1.50;;;7.00;99.90;8.90;100744.00;;;;6246160;22;20538;-70
2024/01/06 09:31:04;;;;;;;0.60;0.60;;;6.90;99.90;8.50;100752.00;;;;6246440;22;20141;-70
2024/01/06 09:33:55;;;;;;;1.77;1.67;;;6.60;99.90;9.40;100752.00;;;;6245482;23;20195;-70
2024/01/06 09:36:23;;;;;;;1.03;1.03;;;6.90;99.90;8.20;100754.00;;;;6246232;22;20190;-70
2024/01/06 09:39:14;;;;;;;1.90;1.80;;;6.60;99.90;8.40;100737.00;;;;6245275;23;20614;-70
2024/01/06 09:42:03;;;;;;;1.37;1.27;;;6.60;99.90;9.10;100729.00;;;;6219266;23;20164;-70
2024/01/06 09:45:07;;;;;;;1.10;1.00;;;6.80;99.90;9.00;100772.00;;;;6244738;23;20157;-70
2024/01/06 09:48:00;;;;;;;2.87;2.67;;;6.80;99.90;7.90;100776.00;;;;6244744;23;20140;-70
2024/01/06 09:51:15;;;;;;;1.53;1.43;;;6.50;99.90;8.30;100787.00;;;;6222274;23;20191;-70
2024/01/06 09:54:16;;;;;;;0.90;0.90;;;6.50;99.90;9.30;100763.00;;;;6245032;23;20189;-70
2024/01/06 09:57:24;;;;;;;1.63;1.53;;;6.70;99.90;8.70;100796.00;;;;6244461;23;20149;-70
2024/01/06 10:00:50;;;;;;;2.97;1.33;;;6.90;99.90;8.80;100805.00;;;;6244687;23;20565;-70
2024/01/06 10:03:38;;;;;;;1.57;1.57;;;6.80;99.90;9.20;100774.00;;;;6246049;22;20507;-70
2024/01/06 10:06:04;;;;;;;1.20;1.20;;;6.80;99.90;8.90;100802.00;;;;6246208;22;20152;-69
2024/01/06 10:09:05;;;;;;;2.03;1.87;;;6.90;99.90;8.80;100810.00;;;;6246271;22;20158;-69
2024/01/06 10:11:43;;;;;;;0.67;0.67;;;6.80;99.90;8.40;100780.00;;;;6229641;23;20185;-69
2024/01/06 10:15:06;;;;;;;0.87;0.87;;;6.60;99.90;9.40;100822.00;;;;6246524;22;20585;-69
2024/01/06 10:17:59;;;;;;;1.83;1.73;;;7.00;99.90;9.10;100825.00;;;;6244240;23;20162;-69
2024/01/06 10:33:55;;;;;;;1.53;1.43;;;5.70;99.90;7.60;100852.00;;;;5121644;27;1449966;-69
2024/01/06 10:36:44;;;;;;;1.00;1.00;;;5.90;99.90;7.60;100839.00;;;;5124529;27;20190;-69
2024/01/06 10:40:11;;;;;;;1.60;1.47;;;6.20;99.90;7.90;100844.00;;;;5148390;27;20179;-69
2024/01/06 10:43:28;;;;;;;1.70;1.60;;;6.20;99.90;8.00;100845.00;;;;5120436;27;20228;-69
2024/01/06 10:46:33;;;;;;;4.03;3.63;;;6.30;99.90;8.30;100838.00;;;;5132811;27;20191;-69
2024/01/06 10:49:36;;;;;;;3.00;2.80;;;6.50;99.90;8.70;100849.00;;;;5135245;27;20179;-69
2024/01/06 10:52:27;;;;;;;2.53;2.33;;;6.60;99.90;8.30;100809.00;;;;5135986;27;20250;-69
2024/01/06 10:55:02;;;;;;;0.80;0.80;;;6.60;99.90;8.20;100855.00;;;;5115981;27;20225;-69
2024/01/06 10:58:02;;;;;;;0.90;0.90;;;6.50;99.90;8.70;100849.00;;;;5116205;27;20187;-69
2024/01/06 11:04:04;;;;;;;1.17;1.10;;;6.50;99.90;8.90;100859.00;;;;5144752;27;20218;-69
2024/01/06 11:07:06;;;;;;;1.03;1.00;;;6.70;99.90;9.60;100879.00;;;;5114835;27;20219;-69
2024/01/06 11:09:58;;;;;;;1.07;1.07;;;7.00;99.90;9.50;100883.00;;;;5115082;27;20198;-69
2024/01/06 11:13:11;;;;;;;1.83;1.73;;;7.10;99.90;9.10;100894.00;;;;5115174;27;20206;-69
2024/01/06 11:16:12;;;;;;;1.87;1.30;;;7.20;99.90;8.40;100861.00;;;;5138083;27;20175;-69
2024/01/06 11:19:33;;;;;;;0.50;0.50;;;6.80;99.90;9.30;100889.00;;;;5132937;27;20262;-69
2024/01/06 11:22:39;;;;;;;0.57;0.57;;;6.90;99.90;9.00;100897.00;;;;5115160;27;20256;-68
2024/01/06 11:25:27;;;;;;;0.40;0.40;;;7.10;99.90;8.90;100904.00;;;;5123977;27;20171;-69
2024/01/06 11:28:07;;;;;;;0.93;0.93;;;7.00;99.90;9.20;100896.00;;;;5131562;27;20184;-69
2024/01/06 11:30:42;;;;;;;0.97;0.97;;;7.10;99.90;9.60;100881.00;;;;5129800;27;20186;-68
2024/01/06 11:33:22;;;;;;;0.40;0.40;;;7.20;99.90;8.50;100885.00;;;;5132130;27;20262;-74
2024/01/06 11:36:02;;;;;;;1.13;1.00;;;7.10;99.90;8.80;100906.00;;;;5122264;27;20190;-70
2024/01/06 11:38:39;;;;;;;4.03;2.50;;;7.00;99.90;8.90;100881.00;;;;5150823;27;20624;-69
2024/01/06 11:41:50;;;;;;;0.30;0.30;;;7.00;99.90;9.10;100905.00;;;;5132180;27;20182;-69
2024/01/06 11:44:38;;;;;;;0.30;0.30;;;7.00;99.90;10.10;100890.00;;;;5117364;27;20186;-69
2024/01/06 11:47:41;;;;;;;1.27;1.23;;;7.40;99.90;10.40;100929.00;;;;5099845;27;20186;-69
2024/01/06 11:50:13;;;;;;;0.30;0.30;;;7.80;99.90;10.70;100920.00;;;;5111671;28;20187;-69
2024/01/06 11:52:48;;;;;;;0.40;0.40;;;7.90;99.90;9.60;100918.00;;;;5088583;27;20203;-69
2024/01/06 11:55:35;;;;;;;1.90;1.80;;;7.60;99.90;9.10;100917.00;;;;5136869;27;20179;-69
2024/01/06 11:58:23;;;;;;;0.30;0.30;;;7.40;99.90;9.40;100880.00;;;;5118234;27;20187;-69
2024/01/06 12:01:06;;;;;;;0.27;0.27;;;7.10;99.90;10.10;100890.00;;;;5085895;27;20179;-68
2024/01/06 12:03:43;;;;;;;0.30;0.30;;;7.50;99.90;9.70;100923.00;;;;5107217;27;20644;-68
2024/01/06 12:06:23;;;;;;;0.37;0.37;;;7.60;99.90;9.30;100899.00;;;;5127228;27;20183;-68
2024/01/06 12:09:20;;;;;;;0.93;0.50;;;7.30;99.90;9.50;100912.00;;;;5115755;27;20180;-69
2024/01/06 12:12:27;;;;;;;0.40;0.40;;;7.20;99.90;10.50;100926.00;;;;5126503;27;20248;-68
2024/01/06 12:15:20;;;;;;;0.63;0.63;;;7.50;99.90;10.10;100929.00;;;;5119999;27;20191;-68
2024/01/06 12:18:16;;;;;;;0.30;0.30;;;7.60;99.90;9.80;100923.00;;;;5117219;27;20707;-68
2024/01/06 12:20:59;;;;;;;0.20;0.20;;;7.50;99.90;10.00;100907.00;;;;5116202;27;20183;-68
2024/01/06 12:27:52;;;;;;;1.27;0.77;;;7.40;99.90;9.30;100925.00;;;;5093664;27;20191;-68
2024/01/06 12:31:06;;;;;;;0.30;0.30;;;7.40;99.90;9.10;100914.00;;;;5105622;27;20733;-68
2024/01/06 12:33:49;;;;;;;0.90;0.33;;;7.00;99.90;9.80;100921.00;;;;5123460;27;20195;-68
2024/01/06 12:36:46;;;;;;;0.97;0.97;;;7.10;99.90;8.80;100919.00;;;;5117461;27;20632;-68
2024/01/06 12:39:35;;;;;;;0.77;0.77;;;7.00;99.90;9.80;100930.00;;;;5106058;27;20207;-68
2024/01/06 12:42:07;;;;;;;0.30;0.30;;;7.20;99.90;9.50;100926.00;;;;5117701;27;20643;-68
2024/01/06 12:44:36;;;;;;;0.20;0.20;;;7.20;99.90;9.50;100940.00;;;;5134415;27;20538;-68
2024/01/06 12:47:03;;;;;;;0.20;0.20;;;7.20;99.90;9.40;100910.00;;;;5117252;27;20184;-68
2024/01/06 12:50:14;;;;;;;0.70;0.70;;;7.10;99.90;9.20;100930.00;;;;5106737;27;20229;-68
2024/01/06 12:52:41;;;;;;;0.60;0.60;;;7.10;99.90;9.50;100927.00;;;;5115922;27;20276;-68
2024/01/06 13:22:05;;;;;;;0.40;0.40;;;7.20;99.90;9.50;100953.00;;;;5095130;22;20245;-70
2024/01/06 13:24:37;;;;;;;0.30;0.30;;;7.20;99.90;9.40;100957.00;;;;5051591;28;20651;-71
2024/01/06 13:27:04;;;;;;;0.70;0.70;;;7.10;99.90;8.80;100958.00;;;;5058576;28;20189;-71
2024/01/06 13:29:33;;;;;;;0.30;0.30;;;7.00;99.90;8.80;100954.00;;;;5066626;28;20603;-71
2024/01/06 13:32:02;;;;;;;0.60;0.60;;;7.00;99.90;9.00;100964.00;;;;5073902;28;20567;-71
2024/01/06 13:34:54;;;;;;;0.20;0.20;;;7.00;99.90;9.40;100969.00;;;;5073387;28;20563;-71
2024/01/06 13:37:27;;;;;;;0.20;0.20;;;7.10;99.90;9.20;100963.00;;;;5077366;28;20204;-70
2024/01/06 13:39:56;;;;;;;1.00;0.90;;;7.00;99.90;8.00;100961.00;;;;5066738;28;20648;-71
2024/01/06 13:42:25;;;;;;;0.30;0.30;;;6.70;99.90;9.70;100946.00;;;;5064412;28;20193;-70
2024/01/06 13:44:54;;;;;;;0.52;0.52;;;7.00;99.90;9.50;100980.00;;;;5060909;28;20513;-70
2024/01/06 13:47:19;;;;;;;1.73;1.07;;;7.10;99.90;8.20;100976.00;;;;5041291;28;20220;-72
2024/01/06 13:49:51;;;;;;;0.30;0.30;;;7.00;99.90;8.90;100978.00;;;;5072883;28;20193;-71
2024/01/06 13:52:17;;;;;;;0.23;0.23;;;6.80;99.90;9.70;100992.00;;;;5058463;28;20242;-70
2024/01/06 13:54:48;;;;;;;0.20;0.20;;;7.20;99.90;9.00;100982.00;;;;5063210;28;20656;-71
2024/01/06 13:57:23;;;;;;;4.83;2.63;;;7.10;99.90;8.70;100983.00;;;;5068770;28;20208;-70
2024/01/06 13:59:58;;;;;;;0.20;0.20;;;7.10;99.90;9.90;100976.00;;;;5031806;28;20227;-70
2024/01/06 14:02:27;;;;;;;0.20;0.20;;;7.20;99.90;9.80;100973.00;;;;5072846;28;20197;-71
2024/01/06 14:05:08;;;;;;;0.93;0.93;;;7.40;99.90;9.50;100985.00;;;;5070283;28;20603;-70
2024/01/06 14:08:05;;;;;;;0.50;0.50;;;7.20;99.90;9.10;100991.00;;;;5046025;28;20292;-70
2024/01/06 14:10:34;;;;;;;0.20;0.20;;;7.10;99.90;9.30;100961.00;;;;5071787;28;20287;-70
2024/01/06 14:13:03;;;;;;;0.23;0.23;;;7.10;99.90;9.30;101011.00;;;;5060783;28;20300;-72
2024/01/06 14:15:36;;;;;;;0.20;0.20;;;7.10;99.90;9.30;100954.00;;;;5072277;28;20197;-71
2024/01/06 14:18:10;;;;;;;0.73;0.73;;;7.10;99.90;9.70;100955.00;;;;5058403;28;20205;-71
2024/01/06 14:20:42;;;;;;;0.70;0.70;;;7.20;99.90;9.60;101023.00;;;;5061240;28;20201;-70
2024/01/06 14:23:24;;;;;;;0.30;0.30;;;7.30;99.90;10.30;101019.00;;;;5071751;28;20674;-70
2024/01/06 14:26:19;;;;;;;0.30;0.30;;;7.50;99.90;10.10;101039.00;;;;5047482;28;20209;-70
2024/01/06 14:29:04;;;;;;;0.50;0.50;;;7.60;99.90;10.00;100980.00;;;;5042583;28;20214;-71
2024/01/06 14:31:33;;;;;;;0.20;0.20;;;7.40;99.90;10.00;101037.00;;;;5057388;28;20210;-70
2024/01/06 14:34:02;;;;;;;2.53;1.07;;;7.50;99.90;9.00;101017.00;;;;5072695;28;20716;-70
2024/01/06 14:36:48;;;;;;;0.30;0.30;;;7.00;99.90;9.20;101036.00;;;;5062136;28;20196;-70
2024/01/06 14:39:15;;;;;;;0.90;0.83;;;7.10;99.90;8.60;101037.00;;;;5055415;28;20239;-70
2024/01/06 14:41:49;;;;;;;1.60;1.50;;;6.80;99.90;9.30;100989.00;;;;5073043;28;20291;-71
2024/01/06 14:44:21;;;;;;;0.63;0.63;;;7.00;99.90;9.80;101044.00;;;;5048594;28;20230;-70
2024/01/06 14:47:12;;;;;;;0.20;0.20;;;7.10;99.90;9.70;101043.00;;;;5065205;28;20710;-70
2024/01/06 14:49:54;;;;;;;0.40;0.40;;;7.10;99.90;9.40;101043.00;;;;5051112;28;20227;-70
2024/01/06 14:52:27;;;;;;;0.40;0.40;;;7.30;99.90;9.40;101001.00;;;;5059575;28;20219;-70
2024/01/06 14:54:56;;;;;;;0.40;0.40;;;7.10;99.90;9.70;101045.00;;;;5058398;28;20610;-70
2024/01/06 14:57:27;;;;;;;0.30;0.30;;;7.30;99.90;9.10;101052.00;;;;5070023;28;20204;-70
2024/01/06 15:00:30;;;;;;;0.47;0.47;;;7.10;99.90;9.10;101000.00;;;;5065068;28;20231;-70
2024/01/06 15:03:33;;;;;;;0.47;0.47;;;6.90;99.90;8.60;101037.00;;;;5073226;28;20201;-70
2024/01/06 15:06:12;;;;;;;0.30;0.30;;;6.90;99.90;8.50;101065.00;;;;4954177;28;20306;-70
2024/01/06 15:09:12;;;;;;;0.63;0.63;;;6.80;99.90;8.50;101019.00;;;;5049690;28;20221;-70
2024/01/06 15:12:21;;;;;;;1.13;0.80;;;6.60;99.90;8.90;101074.00;;;;5065553;28;20695;-70
2024/01/06 15:15:16;;;;;;;0.20;0.20;;;6.70;99.90;9.70;101077.00;;;;5053605;28;20285;-70
2024/01/06 15:18:19;;;;;;;0.30;0.30;;;6.80;99.90;8.70;101104.00;;;;5058739;28;20302;-70
2024/01/06 15:21:15;;;;;;;0.40;0.40;;;6.90;99.90;9.20;101078.00;;;;5056616;28;20754;-70
2024/01/06 15:24:10;;;;;;;0.53;0.53;;;6.70;99.90;8.60;101090.00;;;;5075290;28;20298;-72
2024/01/06 15:27:14;;;;;;;0.30;0.30;;;6.80;99.90;9.20;101077.00;;;;5072225;28;20625;-72
2024/01/06 15:30:15;;;;;;;0.40;0.40;;;6.60;99.90;9.10;101093.00;;;;5029762;28;20208;-71
2024/01/06 15:32:55;;;;;;;0.30;0.30;;;6.80;99.90;9.30;101030.00;;;;5072229;28;20259;-72
2024/01/06 15:35:47;;;;;;;0.43;0.43;;;6.90;99.90;9.20;101092.00;;;;5059261;28;20201;-72
2024/01/06 15:38:24;;;;;;;0.27;0.27;;;6.80;99.90;9.80;101092.00;;;;5054782;28;20190;-72
2024/01/06 15:41:04;;;;;;;0.40;0.40;;;7.00;99.90;8.80;101100.00;;;;5059980;28;20641;-72
2024/01/06 15:44:15;;;;;;;0.47;0.47;;;6.80;99.90;8.40;101099.00;;;;5076369;28;20193;-72
2024/01/06 15:47:01;;;;;;;0.30;0.30;;;6.70;99.90;9.40;101116.00;;;;5075551;28;20203;-72
2024/01/06 15:49:56;;;;;;;0.20;0.20;;;6.90;99.90;9.70;101117.00;;;;5060592;28;20224;-72
2024/01/06 15:52:54;;;;;;;0.30;0.30;;;6.90;99.90;9.80;101114.00;;;;5040590;28;20239;-74
2024/01/06 15:55:39;;;;;;;0.20;0.20;;;7.00;99.90;9.20;101118.00;;;;5061847;28;20223;-72
2024/01/06 15:58:08;;;;;;;0.20;0.20;;;6.70;99.90;8.90;101116.00;;;;5069081;28;20196;-72
2024/01/06 16:00:57;;;;;;;0.43;0.43;;;6.70;99.90;9.40;101131.00;;;;5064092;28;20197;-72
2024/01/06 16:03:33;;;;;;;0.40;0.40;;;6.80;99.90;9.30;101134.00;;;;5060453;28;20193;-72
2024/01/06 16:06:11;;;;;;;0.20;0.20;;;7.00;99.90;8.80;101137.00;;;;5062743;28;20196;-73
2024/01/06 16:08:45;;;;;;;0.30;0.30;;;6.70;99.90;9.00;101132.00;;;;5073693;28;20231;-73
2024/01/06 16:11:22;;;;;;;0.27;0.27;;;6.80;99.90;8.90;101127.00;;;;5067788;28;20200;-72
2024/01/06 16:13:55;;;;;;;0.30;0.30;;;6.60;99.90;9.30;101142.00;;;;5053064;28;20208;-72
2024/01/06 16:16:28;;;;;;;1.03;1.03;;;6.80;99.90;8.60;101132.00;;;;5076728;28;20194;-72
2024/01/06 16:19:18;;;;;;;0.63;0.63;;;6.70;99.90;9.30;101141.00;;;;5058237;28;20351;-73
2024/01/06 16:21:57;;;;;;;0.30;0.30;;;6.70;99.90;8.40;101157.00;;;;5055516;28;20227;-72
2024/01/06 16:24:28;;;;;;;0.20;0.20;;;6.60;99.90;8.60;101137.00;;;;5048396;28;20256;-72
2024/01/06 16:26:54;;;;;;;0.20;0.20;;;6.50;99.90;8.90;101163.00;;;;5066977;28;20208;-72
2024/01/06 16:29:21;;;;;;;2.50;1.70;;;6.60;99.90;9.50;101113.00;;;;5059764;28;20525;-72
2024/01/06 16:31:50;;;;;;;0.40;0.40;;;6.70;99.90;8.90;101136.00;;;;5066378;28;20591;-72
2024/01/06 16:34:16;;;;;;;0.40;0.40;;;6.80;99.90;9.20;101165.00;;;;5062272;28;20239;-72
2024/01/06 16:36:47;;;;;;;0.20;0.20;;;6.80;99.90;9.10;101175.00;;;;5074968;28;20205;-72
2024/01/06 16:39:21;;;;;;;0.30;0.30;;;6.90;99.90;9.50;101173.00;;;;5059318;28;20228;-72
2024/01/06 16:41:52;;;;;;;0.20;0.20;;;6.90;99.90;9.80;101163.00;;;;5057815;28;20204;-72
2024/01/06 16:44:24;;;;;;;0.27;0.27;;;7.00;99.90;9.20;101160.00;;;;5073899;28;20605;-72
2024/01/06 16:46:58;;;;;;;0.97;0.97;;;7.00;99.90;8.00;101166.00;;;;5076361;28;20194;-72
2024/01/06 16:49:31;;;;;;;1.00;0.87;;;6.50;99.90;8.50;101167.00;;;;5045916;28;20227;-72
2024/01/06 16:52:03;;;;;;;0.57;0.57;;;6.50;99.90;7.90;101111.00;;;;5068244;28;20267;-72
2024/01/06 16:54:38;;;;;;;1.70;1.60;;;6.30;99.90;8.90;101170.00;;;;5040689;28;20233;-72
2024/01/06 16:57:09;;;;;;;0.20;0.20;;;6.30;99.90;9.40;101172.00;;;;5078440;28;20198;-72
2024/01/06 16:59:42;;;;;;;0.20;0.20;;;6.50;99.90;9.10;101188.00;;;;5066202;28;20208;-72
2024/01/06 17:02:14;;;;;;;1.13;1.13;;;6.50;99.90;9.50;101179.00;;;;5065714;28;20198;-72
2024/01/06 17:04:45;;;;;;;0.20;0.20;;;6.70;99.90;9.30;101187.00;;;;5065386;28;20224;-72
2024/01/06 17:07:11;;;;;;;0.70;0.70;;;6.60;99.90;8.60;101189.00;;;;5062823;28;20686;-71
2024/01/06 17:09:46;;;;;;;0.30;0.30;;;6.50;99.90;9.20;101176.00;;;;5059147;28;20225;-72
2024/01/06 17:12:16;;;;;;;0.40;0.40;;;6.50;99.90;9.10;101192.00;;;;5064337;28;20294;-72
2024/01/06 17:14:47;;;;;;;0.50;0.50;;;6.60;99.90;9.00;101187.00;;;;5073944;28;20208;-72
2024/01/06 17:17:16;;;;;;;0.30;0.30;;;6.50;99.90;9.00;101188.00;;;;5062305;28;20890;-72
2024/01/06 17:19:47;;;;;;;0.50;0.50;;;6.40;99.90;9.40;101190.00;;;;5062256;28;20556;-72
2024/01/06 17:22:13;;;;;;;0.30;0.30;;;6.60;99.90;9.60;101201.00;;;;5060380;28;20547;-72
2024/01/06 17:24:44;;;;;;;0.50;0.50;;;6.70;99.90;9.20;101186.00;;;;5073771;28;20207;-72
2024/01/06 17:27:10;;;;;;;0.30;0.30;;;6.60;99.90;8.90;101144.00;;;;5074996;28;20221;-72
2024/01/06 17:29:36;;;;;;;0.30;0.30;;;6.50;99.90;9.00;101196.00;;;;5070978;28;20228;-72
2024/01/06 17:32:07;;;;;;;0.30;0.30;;;6.40;99.90;9.50;101200.00;;;;5073361;28;20211;-72
2024/01/06 17:34:38;;;;;;;0.30;0.30;;;6.40;99.90;9.20;101199.00;;;;5064121;28;20204;-72
2024/01/06 17:37:10;;;;;;;0.63;0.63;;;6.40;99.90;9.80;101212.00;;;;5055772;28;20556;-72
2024/01/06 17:39:39;;;;;;;0.30;0.30;;;6.60;99.90;9.20;101191.00;;;;5062190;28;20279;-72
2024/01/06 17:42:10;;;;;;;0.30;0.30;;;6.50;99.90;9.20;101160.00;;;;5073061;28;20197;-72
2024/01/06 17:44:46;;;;;;;0.70;0.70;;;6.50;99.90;9.50;101202.00;;;;5073259;28;20199;-72
2024/01/06 17:47:18;;;;;;;0.67;0.67;;;6.50;99.90;9.70;101162.00;;;;5058001;28;20202;-72
2024/01/06 17:49:50;;;;;;;0.40;0.40;;;6.60;99.90;9.30;101226.00;;;;5073791;28;20616;-72
2024/01/06 17:52:26;;;;;;;0.30;0.30;;;6.50;99.90;8.80;101228.00;;;;5071742;28;20226;-72
2024/01/06 17:54:55;;;;;;;0.40;0.40;;;6.40;99.90;9.20;101225.00;;;;5050699;28;20673;-72
2024/01/06 17:57:34;;;;;;;0.30;0.30;;;6.30;99.90;8.90;101247.00;;;;5060518;28;20211;-72
2024/01/06 18:00:07;;;;;;;0.83;0.60;;;6.30;99.90;9.50;101243.00;;;;5062881;28;20189;-72
2024/01/06 18:02:43;;;;;;;0.43;0.43;;;6.20;99.90;8.80;101226.00;;;;5073612;28;20211;-72
2024/01/06 18:05:09;;;;;;;0.30;0.30;;;6.20;99.90;9.10;101240.00;;;;5063675;28;20215;-72
2024/01/06 18:07:35;;;;;;;1.07;1.03;;;6.20;99.90;9.20;101240.00;;;;5068237;28;20204;-72
2024/01/06 18:10:06;;;;;;;0.33;0.33;;;6.30;99.90;9.00;101254.00;;;;5061537;28;20236;-71
2024/01/06 18:12:32;;;;;;;0.30;0.30;;;6.20;99.90;9.10;101254.00;;;;5049526;28;20216;-71
2024/01/06 18:15:12;;;;;;;0.67;0.67;;;6.20;99.90;9.30;101216.00;;;;5044039;28;20207;-71
2024/01/06 18:17:39;;;;;;;0.30;0.30;;;6.30;99.90;9.20;101251.00;;;;5073234;28;20214;-71
2024/01/06 18:20:06;;;;;;;0.30;0.30;;;6.30;99.90;8.80;101254.00;;;;5073589;28;20190;-71
2024/01/06 18:22:38;;;;;;;0.43;0.43;;;6.10;99.90;9.30;101263.00;;;;5058756;28;20564;-72
2024/01/06 18:25:09;;;;;;;0.30;0.30;;;6.20;99.90;9.10;101238.00;;;;5072798;28;20251;-72
2024/01/06 18:27:41;;;;;;;0.30;0.30;;;6.20;99.90;9.00;101258.00;;;;5061206;28;20199;-72
2024/01/06 18:30:13;;;;;;;0.90;0.90;;;6.10;99.90;8.80;101270.00;;;;5049245;28;20203;-72
2024/01/06 18:32:44;;;;;;;0.40;0.40;;;6.10;99.90;9.00;101253.00;;;;5057645;28;20709;-72
2024/01/06 18:35:16;;;;;;;0.30;0.30;;;6.00;99.90;8.90;101265.00;;;;5072872;28;20193;-71
2024/01/06 18:37:50;;;;;;;1.00;1.00;;;6.10;99.90;8.20;101261.00;;;;5056030;28;20191;-71
2024/01/06 18:40:22;;;;;;;0.70;0.70;;;5.70;99.90;8.20;101244.00;;;;5064464;28;20197;-71
2024/01/06 18:42:53;;;;;;;0.47;0.47;;;5.70;99.90;7.30;101180.00;;;;5073323;28;20679;-71
2024/01/06 18:45:25;;;;;;;0.40;0.40;;;5.40;99.90;7.70;101234.00;;;;5060264;28;20293;-71
2024/01/06 18:47:57;;;;;;;0.63;0.63;;;5.20;99.90;8.40;101255.00;;;;5061382;28;20708;-71
2024/01/06 18:50:28;;;;;;;0.30;0.30;;;5.40;99.90;7.80;101251.00;;;;5054682;28;20256;-71
2024/01/06 18:52:59;;;;;;;0.40;0.40;;;5.50;99.90;8.00;101256.00;;;;5055480;28;20291;-70
2024/01/06 18:55:31;;;;;;;0.50;0.50;;;5.50;99.90;8.50;101267.00;;;;5063238;28;20538;-70
2024/01/06 18:58:17;;;;;;;2.77;1.60;;;5.50;99.90;8.30;101261.00;;;;5066404;28;20202;-70
2024/01/06 19:00:48;;;;;;;0.40;0.40;;;5.60;99.90;8.10;101210.00;;;;5065792;28;20182;-70
2024/01/06 19:03:20;;;;;;;0.80;0.80;;;5.60;99.90;8.30;101273.00;;;;5076638;28;20193;-71
2024/01/06 19:05:46;;;;;;;0.50;0.50;;;5.50;99.90;8.20;101260.00;;;;5059161;28;20204;-72
2024/01/06 19:08:17;;;;;;;0.40;0.40;;;5.40;99.90;8.60;101284.00;;;;5061656;28;20732;-72
2024/01/06 19:10:46;;;;;;;0.57;0.57;;;5.60;99.90;8.50;101289.00;;;;5046186;28;20718;-72
2024/01/06 19:13:17;;;;;;;0.30;0.30;;;5.70;99.90;8.20;101293.00;;;;5054678;28;20215;-72
2024/01/06 19:15:46;;;;;;;0.33;0.33;;;5.70;99.90;8.00;101288.00;;;;5062609;28;20279;-72
2024/01/06 19:18:19;;;;;;;0.40;0.40;;;5.50;99.90;7.80;101275.00;;;;5066241;28;20685;-72
2024/01/06 19:20:46;;;;;;;0.40;0.40;;;5.30;99.90;8.50;101294.00;;;;5076101;28;20207;-72
2024/01/06 19:23:21;;;;;;;0.30;0.30;;;5.50;99.90;8.90;101302.00;;;;5061963;28;20586;-72
2024/01/06 19:25:55;;;;;;;0.40;0.40;;;5.70;99.90;8.80;101313.00;;;;5061809;28;20196;-72
2024/01/06 19:28:28;;;;;;;0.40;0.40;;;5.80;99.90;8.60;101307.00;;;;5076161;28;20193;-71
2024/01/06 19:30:59;;;;;;;0.40;0.40;;;5.80;99.90;8.80;101323.00;;;;5076145;28;20559;-72
2024/01/06 19:33:31;;;;;;;0.40;0.40;;;5.80;99.90;8.20;101308.00;;;;5073596;28;20215;-72
2024/01/06 19:36:02;;;;;;;0.40;0.40;;;5.50;99.90;8.20;101301.00;;;;5069149;28;20203;-72
2024/01/06 19:38:34;;;;;;;0.70;0.60;;;5.40;99.90;8.60;101256.00;;;;5068522;28;20192;-72
2024/01/06 19:41:05;;;;;;;0.70;0.70;;;5.50;99.90;8.20;101316.00;;;;5072998;28;20191;-72
2024/01/06 19:43:31;;;;;;;0.40;0.40;;;5.50;99.90;8.70;101267.00;;;;5059883;28;20672;-72
2024/01/06 19:46:10;;;;;;;1.07;1.07;;;5.60;99.90;8.80;101316.00;;;;5077054;28;20186;-72